sensor_id;sensor_type;location;lat;lon;timestamp;temperature;humidity
43987;DHT22;29650;47.378;8.300;2023-08-21T00:01:33;24.00;92.70
43987;DHT22;29650;47.378;8.300;2023-08-21T00:04:00;24.10;92.60
43987;DHT22;29650;47.378;8.300;2023-08-21T00:06:27;24.00;92.90
43987;DHT22;29650;47.378;8.300;2023-08-21T00:08:54;24.00;93.80
43987;DHT22;29650;47.378;8.300;2023-08-21T00:11:21;24.00;93.30
43987;DHT22;29650;47.378;8.300;2023-08-21T00:13:48;23.90;93.70
43987;DHT22;29650;47.378;8.300;2023-08-21T00:16:17;24.00;93.70
43987;DHT22;29650;47.378;8.300;2023-08-21T00:18:44;24.00;93.30
43987;DHT22;29650;47.378;8.300;2023-08-21T00:21:11;23.90;93.80
43987;DHT22;29650;47.378;8.300;2023-08-21T00:23:38;23.90;93.20
43987;DHT22;29650;47.378;8.300;2023-08-21T00:26:05;24.00;93.60
43987;DHT22;29650;47.378;8.300;2023-08-21T00:28:32;23.90;94.00
43987;DHT22;29650;47.378;8.300;2023-08-21T00:31:01;24.00;93.60
43987;DHT22;29650;47.378;8.300;2023-08-21T00:33:30;23.90;94.60
43987;DHT22;29650;47.378;8.300;2023-08-21T00:35:57;23.80;95.00
43987;DHT22;29650;47.378;8.300;2023-08-21T00:38:24;23.70;96.50
43987;DHT22;29650;47.378;8.300;2023-08-21T00:40:52;23.60;97.10
43987;DHT22;29650;47.378;8.300;2023-08-21T00:43:19;23.60;98.80
43987;DHT22;29650;47.378;8.300;2023-08-21T00:45:46;23.60;98.70
43987;DHT22;29650;47.378;8.300;2023-08-21T00:48:14;23.60;98.70
43987;DHT22;29650;47.378;8.300;2023-08-21T00:50:43;23.60;98.00
43987;DHT22;29650;47.378;8.300;2023-08-21T00:53:11;23.70;98.10
43987;DHT22;29650;47.378;8.300;2023-08-21T00:55:38;23.60;97.60
43987;DHT22;29650;47.378;8.300;2023-08-21T00:58:05;23.50;98.80
43987;DHT22;29650;47.378;8.300;2023-08-21T01:00:33;23.50;98.90
43987;DHT22;29650;47.378;8.300;2023-08-21T01:03:00;23.50;99.50
43987;DHT22;29650;47.378;8.300;2023-08-21T01:05:28;23.40;99.90
43987;DHT22;29650;47.378;8.300;2023-08-21T01:08:01;23.30;99.90
43987;DHT22;29650;47.378;8.300;2023-08-21T01:10:45;23.30;99.90
43987;DHT22;29650;47.378;8.300;2023-08-21T01:13:23;23.40;99.90
43987;DHT22;29650;47.378;8.300;2023-08-21T01:15:54;23.40;99.90
43987;DHT22;29650;47.378;8.300;2023-08-21T01:18:22;23.40;99.90
43987;DHT22;29650;47.378;8.300;2023-08-21T01:20:49;23.40;99.90
43987;DHT22;29650;47.378;8.300;2023-08-21T01:23:32;23.30;99.90
43987;DHT22;29650;47.378;8.300;2023-08-21T01:25:59;23.30;99.90
43987;DHT22;29650;47.378;8.300;2023-08-21T01:28:26;23.30;99.90
43987;DHT22;29650;47.378;8.300;2023-08-21T01:31:01;23.30;99.90
43987;DHT22;29650;47.378;8.300;2023-08-21T01:33:30;23.20;99.90
43987;DHT22;29650;47.378;8.300;2023-08-21T01:36:00;23.10;99.90
43987;DHT22;29650;47.378;8.300;2023-08-21T01:38:32;23.00;99.90
43987;DHT22;29650;47.378;8.300;2023-08-21T01:40:59;22.90;99.90
43987;DHT22;29650;47.378;8.300;2023-08-21T01:43:25;22.80;99.90
43987;DHT22;29650;47.378;8.300;2023-08-21T01:45:53;22.90;99.90
43987;DHT22;29650;47.378;8.300;2023-08-21T01:48:19;22.90;99.90
43987;DHT22;29650;47.378;8.300;2023-08-21T01:50:46;22.90;99.90
43987;DHT22;29650;47.378;8.300;2023-08-21T01:53:13;22.90;99.90
43987;DHT22;29650;47.378;8.300;2023-08-21T01:55:41;22.90;99.90
43987;DHT22;29650;47.378;8.300;2023-08-21T01:58:08;22.90;99.90
43987;DHT22;29650;47.378;8.300;2023-08-21T02:00:35;22.90;99.90
43987;DHT22;29650;47.378;8.300;2023-08-21T02:03:02;22.80;99.90
43987;DHT22;29650;47.378;8.300;2023-08-21T02:05:29;22.80;99.90
43987;DHT22;29650;47.378;8.300;2023-08-21T02:07:56;22.70;99.90
43987;DHT22;29650;47.378;8.300;2023-08-21T02:10:23;22.60;99.90
43987;DHT22;29650;47.378;8.300;2023-08-21T02:12:51;22.70;99.90
43987;DHT22;29650;47.378;8.300;2023-08-21T02:15:19;22.60;99.90
43987;DHT22;29650;47.378;8.300;2023-08-21T02:17:47;22.60;99.90
43987;DHT22;29650;47.378;8.300;2023-08-21T02:20:14;22.70;99.90
43987;DHT22;29650;47.378;8.300;2023-08-21T02:22:41;22.60;99.90
43987;DHT22;29650;47.378;8.300;2023-08-21T02:25:08;22.50;99.90
43987;DHT22;29650;47.378;8.300;2023-08-21T02:27:36;22.50;99.90
43987;DHT22;29650;47.378;8.300;2023-08-21T02:30:05;22.60;99.90
43987;DHT22;29650;47.378;8.300;2023-08-21T02:32:32;22.60;99.90
43987;DHT22;29650;47.378;8.300;2023-08-21T02:35:00;22.70;99.90
43987;DHT22;29650;47.378;8.300;2023-08-21T02:37:27;22.60;99.90
43987;DHT22;29650;47.378;8.300;2023-08-21T02:39:54;22.60;99.90
43987;DHT22;29650;47.378;8.300;2023-08-21T02:42:21;22.60;99.90
43987;DHT22;29650;47.378;8.300;2023-08-21T02:44:47;22.60;99.90
43987;DHT22;29650;47.378;8.300;2023-08-21T02:47:16;22.60;99.90
43987;DHT22;29650;47.378;8.300;2023-08-21T02:49:43;22.60;99.90
43987;DHT22;29650;47.378;8.300;2023-08-21T02:52:10;22.50;99.90
43987;DHT22;29650;47.378;8.300;2023-08-21T02:54:37;22.50;99.90
43987;DHT22;29650;47.378;8.300;2023-08-21T02:57:04;22.40;99.90
43987;DHT22;29650;47.378;8.300;2023-08-21T02:59:31;22.30;99.90
43987;DHT22;29650;47.378;8.300;2023-08-21T03:01:57;22.30;99.90
43987;DHT22;29650;47.378;8.300;2023-08-21T03:04:26;22.40;99.90
43987;DHT22;29650;47.378;8.300;2023-08-21T03:06:53;22.30;99.90
43987;DHT22;29650;47.378;8.300;2023-08-21T03:09:19;22.30;99.90
43987;DHT22;29650;47.378;8.300;2023-08-21T03:11:46;22.30;99.90
43987;DHT22;29650;47.378;8.300;2023-08-21T03:14:13;22.30;99.90
43987;DHT22;29650;47.378;8.300;2023-08-21T03:16:40;22.50;99.90
43987;DHT22;29650;47.378;8.300;2023-08-21T03:19:07;22.50;99.90
43987;DHT22;29650;47.378;8.300;2023-08-21T03:21:35;22.50;99.90
43987;DHT22;29650;47.378;8.300;2023-08-21T03:24:02;22.40;99.90
43987;DHT22;29650;47.378;8.300;2023-08-21T03:26:29;22.40;99.90
43987;DHT22;29650;47.378;8.300;2023-08-21T03:28:56;22.40;99.90
43987;DHT22;29650;47.378;8.300;2023-08-21T03:31:23;22.20;99.90
43987;DHT22;29650;47.378;8.300;2023-08-21T03:33:50;22.20;99.90
43987;DHT22;29650;47.378;8.300;2023-08-21T03:36:18;22.20;99.90
43987;DHT22;29650;47.378;8.300;2023-08-21T03:38:47;22.20;99.90
43987;DHT22;29650;47.378;8.300;2023-08-21T03:41:14;22.10;99.90
43987;DHT22;29650;47.378;8.300;2023-08-21T03:43:40;22.00;99.90
43987;DHT22;29650;47.378;8.300;2023-08-21T03:46:07;22.00;99.90
43987;DHT22;29650;47.378;8.300;2023-08-21T03:48:34;22.00;99.90
43987;DHT22;29650;47.378;8.300;2023-08-21T03:51:01;22.00;99.90
43987;DHT22;29650;47.378;8.300;2023-08-21T03:53:28;22.00;99.90
43987;DHT22;29650;47.378;8.300;2023-08-21T03:55:56;22.10;99.90
43987;DHT22;29650;47.378;8.300;2023-08-21T03:58:23;21.90;99.90
43987;DHT22;29650;47.378;8.300;2023-08-21T04:00:51;22.00;99.90
43987;DHT22;29650;47.378;8.300;2023-08-21T04:03:17;22.00;99.90
43987;DHT22;29650;47.378;8.300;2023-08-21T04:05:44;21.90;99.90
43987;DHT22;29650;47.378;8.300;2023-08-21T04:08:11;22.00;99.90
43987;DHT22;29650;47.378;8.300;2023-08-21T04:10:38;21.90;99.90
43987;DHT22;29650;47.378;8.300;2023-08-21T04:13:08;21.80;99.90
43987;DHT22;29650;47.378;8.300;2023-08-21T04:15:35;21.70;99.90
43987;DHT22;29650;47.378;8.300;2023-08-21T04:18:03;21.50;99.90
43987;DHT22;29650;47.378;8.300;2023-08-21T04:20:31;21.60;99.90
43987;DHT22;29650;47.378;8.300;2023-08-21T04:22:58;21.60;99.90
43987;DHT22;29650;47.378;8.300;2023-08-21T04:25:25;21.50;99.90
43987;DHT22;29650;47.378;8.300;2023-08-21T04:27:52;21.50;99.90
43987;DHT22;29650;47.378;8.300;2023-08-21T04:30:20;21.50;99.90
43987;DHT22;29650;47.378;8.300;2023-08-21T04:32:47;21.40;99.90
43987;DHT22;29650;47.378;8.300;2023-08-21T04:35:14;21.40;99.90
43987;DHT22;29650;47.378;8.300;2023-08-21T04:37:45;21.50;99.90
43987;DHT22;29650;47.378;8.300;2023-08-21T04:40:13;21.50;99.90
43987;DHT22;29650;47.378;8.300;2023-08-21T04:42:40;21.40;99.90
43987;DHT22;29650;47.378;8.300;2023-08-21T04:45:07;21.50;99.90
43987;DHT22;29650;47.378;8.300;2023-08-21T04:47:36;21.50;99.90
43987;DHT22;29650;47.378;8.300;2023-08-21T04:50:03;21.50;99.90
43987;DHT22;29650;47.378;8.300;2023-08-21T04:52:30;21.50;99.90
43987;DHT22;29650;47.378;8.300;2023-08-21T04:54:57;21.60;99.90
43987;DHT22;29650;47.378;8.300;2023-08-21T04:57:24;21.70;99.90
43987;DHT22;29650;47.378;8.300;2023-08-21T04:59:51;21.60;99.90
43987;DHT22;29650;47.378;8.300;2023-08-21T05:02:18;21.60;99.90
43987;DHT22;29650;47.378;8.300;2023-08-21T05:04:46;21.50;99.90
43987;DHT22;29650;47.378;8.300;2023-08-21T05:07:14;21.50;99.90
43987;DHT22;29650;47.378;8.300;2023-08-21T05:09:41;21.50;99.90
43987;DHT22;29650;47.378;8.300;2023-08-21T05:12:08;21.50;99.90
43987;DHT22;29650;47.378;8.300;2023-08-21T05:14:35;21.60;99.90
43987;DHT22;29650;47.378;8.300;2023-08-21T05:17:03;21.70;99.90
43987;DHT22;29650;47.378;8.300;2023-08-21T05:19:30;21.70;99.90
43987;DHT22;29650;47.378;8.300;2023-08-21T05:21:58;21.60;99.90
43987;DHT22;29650;47.378;8.300;2023-08-21T05:24:25;21.70;99.90
43987;DHT22;29650;47.378;8.300;2023-08-21T05:26:52;21.80;99.90
43987;DHT22;29650;47.378;8.300;2023-08-21T05:29:19;21.90;99.90
43987;DHT22;29650;47.378;8.300;2023-08-21T05:31:46;22.00;99.90
43987;DHT22;29650;47.378;8.300;2023-08-21T05:34:13;22.10;99.90
43987;DHT22;29650;47.378;8.300;2023-08-21T05:36:39;22.20;99.90
43987;DHT22;29650;47.378;8.300;2023-08-21T05:39:08;22.20;99.90
43987;DHT22;29650;47.378;8.300;2023-08-21T05:41:35;22.10;99.90
43987;DHT22;29650;47.378;8.300;2023-08-21T05:44:02;22.00;99.90
43987;DHT22;29650;47.378;8.300;2023-08-21T05:46:29;22.00;99.90
43987;DHT22;29650;47.378;8.300;2023-08-21T05:48:56;22.00;99.90
43987;DHT22;29650;47.378;8.300;2023-08-21T05:51:23;22.10;99.90
43987;DHT22;29650;47.378;8.300;2023-08-21T05:53:50;22.00;99.90
43987;DHT22;29650;47.378;8.300;2023-08-21T05:56:18;22.00;99.90
43987;DHT22;29650;47.378;8.300;2023-08-21T05:58:45;22.10;99.90
43987;DHT22;29650;47.378;8.300;2023-08-21T06:01:12;22.20;99.90
43987;DHT22;29650;47.378;8.300;2023-08-21T06:03:39;22.10;99.90
43987;DHT22;29650;47.378;8.300;2023-08-21T06:06:06;22.10;99.90
43987;DHT22;29650;47.378;8.300;2023-08-21T06:08:33;22.10;99.90
43987;DHT22;29650;47.378;8.300;2023-08-21T06:11:00;22.10;99.90
43987;DHT22;29650;47.378;8.300;2023-08-21T06:13:28;22.40;99.90
43987;DHT22;29650;47.378;8.300;2023-08-21T06:15:55;22.60;99.90
43987;DHT22;29650;47.378;8.300;2023-08-21T06:18:22;22.70;99.90
43987;DHT22;29650;47.378;8.300;2023-08-21T06:20:49;23.00;99.90
43987;DHT22;29650;47.378;8.300;2023-08-21T06:23:19;23.00;99.90
43987;DHT22;29650;47.378;8.300;2023-08-21T06:25:47;23.30;99.90
43987;DHT22;29650;47.378;8.300;2023-08-21T06:28:14;23.40;99.90
43987;DHT22;29650;47.378;8.300;2023-08-21T06:30:43;23.50;99.90
43987;DHT22;29650;47.378;8.300;2023-08-21T06:33:10;23.50;99.90
43987;DHT22;29650;47.378;8.300;2023-08-21T06:35:37;23.50;99.90
43987;DHT22;29650;47.378;8.300;2023-08-21T06:38:04;23.50;99.90
43987;DHT22;29650;47.378;8.300;2023-08-21T06:40:31;23.30;99.90
43987;DHT22;29650;47.378;8.300;2023-08-21T06:42:58;23.40;99.90
43987;DHT22;29650;47.378;8.300;2023-08-21T06:45:25;23.50;99.90
43987;DHT22;29650;47.378;8.300;2023-08-21T06:47:57;23.60;99.90
43987;DHT22;29650;47.378;8.300;2023-08-21T06:50:23;23.80;99.90
43987;DHT22;29650;47.378;8.300;2023-08-21T06:52:50;23.80;99.90
43987;DHT22;29650;47.378;8.300;2023-08-21T06:55:17;23.80;99.90
43987;DHT22;29650;47.378;8.300;2023-08-21T06:57:44;23.80;99.90
43987;DHT22;29650;47.378;8.300;2023-08-21T07:00:12;24.00;99.90
43987;DHT22;29650;47.378;8.300;2023-08-21T07:02:39;24.10;99.90
43987;DHT22;29650;47.378;8.300;2023-08-21T07:05:08;24.20;99.90
43987;DHT22;29650;47.378;8.300;2023-08-21T07:07:35;24.50;98.80
43987;DHT22;29650;47.378;8.300;2023-08-21T07:10:02;24.50;96.90
43987;DHT22;29650;47.378;8.300;2023-08-21T07:12:29;24.60;95.50
43987;DHT22;29650;47.378;8.300;2023-08-21T07:14:56;24.80;93.80
43987;DHT22;29650;47.378;8.300;2023-08-21T07:17:23;24.90;93.30
43987;DHT22;29650;47.378;8.300;2023-08-21T07:19:50;24.80;92.80
43987;DHT22;29650;47.378;8.300;2023-08-21T07:22:19;25.00;92.90
43987;DHT22;29650;47.378;8.300;2023-08-21T07:24:47;25.00;92.30
43987;DHT22;29650;47.378;8.300;2023-08-21T07:27:14;25.30;90.90
43987;DHT22;29650;47.378;8.300;2023-08-21T07:29:41;25.20;91.00
43987;DHT22;29650;47.378;8.300;2023-08-21T07:32:08;25.20;90.90
43987;DHT22;29650;47.378;8.300;2023-08-21T07:34:34;25.40;90.40
43987;DHT22;29650;47.378;8.300;2023-08-21T07:37:01;25.40;86.90
43987;DHT22;29650;47.378;8.300;2023-08-21T07:39:29;25.50;87.60
43987;DHT22;29650;47.378;8.300;2023-08-21T07:41:56;25.70;86.40
43987;DHT22;29650;47.378;8.300;2023-08-21T07:44:23;25.70;86.10
43987;DHT22;29650;47.378;8.300;2023-08-21T07:46:50;25.80;86.70
43987;DHT22;29650;47.378;8.300;2023-08-21T07:49:17;25.70;84.50
43987;DHT22;29650;47.378;8.300;2023-08-21T07:51:43;25.90;84.90
43987;DHT22;29650;47.378;8.300;2023-08-21T07:54:10;25.80;82.00
43987;DHT22;29650;47.378;8.300;2023-08-21T07:56:38;25.90;80.90
43987;DHT22;29650;47.378;8.300;2023-08-21T07:59:06;26.10;83.30
43987;DHT22;29650;47.378;8.300;2023-08-21T08:01:33;26.30;81.10
43987;DHT22;29650;47.378;8.300;2023-08-21T08:04:00;26.40;79.10
43987;DHT22;29650;47.378;8.300;2023-08-21T08:06:27;26.40;80.10
43987;DHT22;29650;47.378;8.300;2023-08-21T08:08:54;26.50;77.00
43987;DHT22;29650;47.378;8.300;2023-08-21T08:11:21;26.60;75.20
43987;DHT22;29650;47.378;8.300;2023-08-21T08:13:49;26.50;73.30
43987;DHT22;29650;47.378;8.300;2023-08-21T08:16:16;26.70;74.00
43987;DHT22;29650;47.378;8.300;2023-08-21T08:18:43;26.70;72.50
43987;DHT22;29650;47.378;8.300;2023-08-21T08:21:10;27.00;71.10
43987;DHT22;29650;47.378;8.300;2023-08-21T08:23:37;27.10;69.60
43987;DHT22;29650;47.378;8.300;2023-08-21T08:26:04;26.90;70.20
43987;DHT22;29650;47.378;8.300;2023-08-21T08:28:31;27.10;70.80
43987;DHT22;29650;47.378;8.300;2023-08-21T08:30:59;27.10;69.70
43987;DHT22;29650;47.378;8.300;2023-08-21T08:33:26;27.20;69.20
43987;DHT22;29650;47.378;8.300;2023-08-21T08:35:53;27.50;68.20
43987;DHT22;29650;47.378;8.300;2023-08-21T08:38:20;27.50;66.40
43987;DHT22;29650;47.378;8.300;2023-08-21T08:40:47;27.80;65.80
43987;DHT22;29650;47.378;8.300;2023-08-21T08:43:16;27.80;65.60
43987;DHT22;29650;47.378;8.300;2023-08-21T08:45:45;27.80;64.40
43987;DHT22;29650;47.378;8.300;2023-08-21T08:48:15;27.90;62.50
43987;DHT22;29650;47.378;8.300;2023-08-21T08:50:43;27.90;64.40
43987;DHT22;29650;47.378;8.300;2023-08-21T08:53:11;27.90;66.30
43987;DHT22;29650;47.378;8.300;2023-08-21T08:55:39;27.80;62.50
43987;DHT22;29650;47.378;8.300;2023-08-21T08:58:06;27.70;64.60
43987;DHT22;29650;47.378;8.300;2023-08-21T09:00:33;28.00;63.90
43987;DHT22;29650;47.378;8.300;2023-08-21T09:03:00;28.10;61.70
43987;DHT22;29650;47.378;8.300;2023-08-21T09:05:28;28.20;61.90
43987;DHT22;29650;47.378;8.300;2023-08-21T09:08:10;28.20;58.90
43987;DHT22;29650;47.378;8.300;2023-08-21T09:10:38;28.30;60.00
43987;DHT22;29650;47.378;8.300;2023-08-21T09:13:12;28.30;61.00
43987;DHT22;29650;47.378;8.300;2023-08-21T09:15:41;28.40;59.60
43987;DHT22;29650;47.378;8.300;2023-08-21T09:18:09;28.50;60.40
43987;DHT22;29650;47.378;8.300;2023-08-21T09:20:38;28.40;58.40
43987;DHT22;29650;47.378;8.300;2023-08-21T09:23:05;28.50;60.50
43987;DHT22;29650;47.378;8.300;2023-08-21T09:25:36;28.60;60.30
43987;DHT22;29650;47.378;8.300;2023-08-21T09:28:05;28.70;58.60
43987;DHT22;29650;47.378;8.300;2023-08-21T09:30:46;28.60;58.30
43987;DHT22;29650;47.378;8.300;2023-08-21T09:33:14;28.90;58.30
43987;DHT22;29650;47.378;8.300;2023-08-21T09:35:44;28.80;57.50
43987;DHT22;29650;47.378;8.300;2023-08-21T09:38:11;28.70;59.10
43987;DHT22;29650;47.378;8.300;2023-08-21T09:40:40;29.20;58.30
43987;DHT22;29650;47.378;8.300;2023-08-21T09:43:08;29.00;55.80
43987;DHT22;29650;47.378;8.300;2023-08-21T09:45:37;29.10;54.80
43987;DHT22;29650;47.378;8.300;2023-08-21T09:48:05;29.30;54.00
43987;DHT22;29650;47.378;8.300;2023-08-21T09:50:32;29.30;53.80
43987;DHT22;29650;47.378;8.300;2023-08-21T09:53:02;29.40;53.70
43987;DHT22;29650;47.378;8.300;2023-08-21T09:55:32;29.30;53.40
43987;DHT22;29650;47.378;8.300;2023-08-21T09:58:00;29.30;55.30
43987;DHT22;29650;47.378;8.300;2023-08-21T10:00:29;29.30;53.30
43987;DHT22;29650;47.378;8.300;2023-08-21T10:03:00;29.30;54.40
43987;DHT22;29650;47.378;8.300;2023-08-21T10:05:31;29.60;53.60
43987;DHT22;29650;47.378;8.300;2023-08-21T10:08:02;29.70;52.30
43987;DHT22;29650;47.378;8.300;2023-08-21T10:10:30;29.80;51.70
43987;DHT22;29650;47.378;8.300;2023-08-21T10:12:58;29.80;54.20
43987;DHT22;29650;47.378;8.300;2023-08-21T10:15:26;29.80;52.40
43987;DHT22;29650;47.378;8.300;2023-08-21T10:17:54;30.10;50.00
43987;DHT22;29650;47.378;8.300;2023-08-21T10:20:21;30.10;48.90
43987;DHT22;29650;47.378;8.300;2023-08-21T10:22:52;30.10;48.50
43987;DHT22;29650;47.378;8.300;2023-08-21T10:25:23;30.10;47.60
43987;DHT22;29650;47.378;8.300;2023-08-21T10:27:53;30.10;46.60
43987;DHT22;29650;47.378;8.300;2023-08-21T10:30:21;30.00;49.80
43987;DHT22;29650;47.378;8.300;2023-08-21T10:32:49;30.20;47.40
43987;DHT22;29650;47.378;8.300;2023-08-21T10:35:19;30.60;48.40
43987;DHT22;29650;47.378;8.300;2023-08-21T10:38:05;30.70;46.30
43987;DHT22;29650;47.378;8.300;2023-08-21T10:40:34;30.90;46.00
43987;DHT22;29650;47.378;8.300;2023-08-21T10:43:01;30.30;45.10
43987;DHT22;29650;47.378;8.300;2023-08-21T10:45:29;30.50;45.80
43987;DHT22;29650;47.378;8.300;2023-08-21T10:47:57;30.60;45.90
43987;DHT22;29650;47.378;8.300;2023-08-21T10:50:24;30.60;45.00
43987;DHT22;29650;47.378;8.300;2023-08-21T10:52:52;30.70;44.30
43987;DHT22;29650;47.378;8.300;2023-08-21T10:55:20;30.80;43.30
43987;DHT22;29650;47.378;8.300;2023-08-21T10:57:49;31.10;42.40
43987;DHT22;29650;47.378;8.300;2023-08-21T11:00:17;31.10;40.60
43987;DHT22;29650;47.378;8.300;2023-08-21T11:02:46;31.30;41.80
43987;DHT22;29650;47.378;8.300;2023-08-21T11:05:14;31.40;40.70
43987;DHT22;29650;47.378;8.300;2023-08-21T11:07:42;31.60;41.40
43987;DHT22;29650;47.378;8.300;2023-08-21T11:10:11;31.80;41.40
43987;DHT22;29650;47.378;8.300;2023-08-21T11:12:50;31.90;40.20
43987;DHT22;29650;47.378;8.300;2023-08-21T11:15:18;31.60;37.90
43987;DHT22;29650;47.378;8.300;2023-08-21T11:17:52;31.20;36.80
43987;DHT22;29650;47.378;8.300;2023-08-21T11:20:19;31.20;36.30
43987;DHT22;29650;47.378;8.300;2023-08-21T11:22:46;31.40;35.70
43987;DHT22;29650;47.378;8.300;2023-08-21T11:25:15;31.50;36.60
43987;DHT22;29650;47.378;8.300;2023-08-21T11:27:42;31.80;35.00
43987;DHT22;29650;47.378;8.300;2023-08-21T11:30:12;32.10;35.00
43987;DHT22;29650;47.378;8.300;2023-08-21T11:32:40;32.10;34.40
43987;DHT22;29650;47.378;8.300;2023-08-21T11:35:07;32.00;33.50
43987;DHT22;29650;47.378;8.300;2023-08-21T11:37:34;32.00;31.60
43987;DHT22;29650;47.378;8.300;2023-08-21T11:40:10;31.90;30.00
43987;DHT22;29650;47.378;8.300;2023-08-21T11:42:37;31.80;31.40
43987;DHT22;29650;47.378;8.300;2023-08-21T11:45:04;31.80;28.80
43987;DHT22;29650;47.378;8.300;2023-08-21T11:47:34;32.10;27.60
43987;DHT22;29650;47.378;8.300;2023-08-21T11:50:06;32.30;27.90
43987;DHT22;29650;47.378;8.300;2023-08-21T11:52:36;32.40;27.60
43987;DHT22;29650;47.378;8.300;2023-08-21T11:55:07;32.20;28.30
43987;DHT22;29650;47.378;8.300;2023-08-21T11:57:34;32.40;27.70
43987;DHT22;29650;47.378;8.300;2023-08-21T12:00:02;32.40;26.60
43987;DHT22;29650;47.378;8.300;2023-08-21T12:02:33;32.40;27.10
43987;DHT22;29650;47.378;8.300;2023-08-21T12:05:05;32.60;26.80
43987;DHT22;29650;47.378;8.300;2023-08-21T12:07:32;32.90;25.50
43987;DHT22;29650;47.378;8.300;2023-08-21T12:09:59;32.80;24.30
43987;DHT22;29650;47.378;8.300;2023-08-21T12:12:26;33.10;25.40
43987;DHT22;29650;47.378;8.300;2023-08-21T12:14:53;33.10;23.60
43987;DHT22;29650;47.378;8.300;2023-08-21T12:17:20;33.00;23.10
43987;DHT22;29650;47.378;8.300;2023-08-21T12:19:48;33.30;23.10
43987;DHT22;29650;47.378;8.300;2023-08-21T12:22:15;33.20;22.30
43987;DHT22;29650;47.378;8.300;2023-08-21T12:24:42;33.00;22.80
43987;DHT22;29650;47.378;8.300;2023-08-21T12:27:09;33.00;23.00
43987;DHT22;29650;47.378;8.300;2023-08-21T12:29:36;33.10;23.90
43987;DHT22;29650;47.378;8.300;2023-08-21T12:32:03;33.20;22.10
43987;DHT22;29650;47.378;8.300;2023-08-21T12:34:30;33.30;21.40
43987;DHT22;29650;47.378;8.300;2023-08-21T12:36:59;33.50;21.70
43987;DHT22;29650;47.378;8.300;2023-08-21T12:39:26;33.10;20.80
43987;DHT22;29650;47.378;8.300;2023-08-21T12:41:53;33.30;21.00
43987;DHT22;29650;47.378;8.300;2023-08-21T12:44:19;33.80;23.40
43987;DHT22;29650;47.378;8.300;2023-08-21T12:46:46;33.90;21.60
43987;DHT22;29650;47.378;8.300;2023-08-21T12:49:13;33.50;22.00
43987;DHT22;29650;47.378;8.300;2023-08-21T12:51:40;33.70;21.40
43987;DHT22;29650;47.378;8.300;2023-08-21T12:54:08;33.60;21.00
43987;DHT22;29650;47.378;8.300;2023-08-21T12:56:35;33.60;20.70
43987;DHT22;29650;47.378;8.300;2023-08-21T12:59:02;33.50;20.40
43987;DHT22;29650;47.378;8.300;2023-08-21T13:01:29;33.40;21.40
43987;DHT22;29650;47.378;8.300;2023-08-21T13:03:57;33.60;21.40
43987;DHT22;29650;47.378;8.300;2023-08-21T13:06:24;33.80;21.70
43987;DHT22;29650;47.378;8.300;2023-08-21T13:08:51;33.90;22.60
43987;DHT22;29650;47.378;8.300;2023-08-21T13:11:19;33.80;22.00
43987;DHT22;29650;47.378;8.300;2023-08-21T13:13:47;33.40;21.70
43987;DHT22;29650;47.378;8.300;2023-08-21T13:16:14;33.60;20.80
43987;DHT22;29650;47.378;8.300;2023-08-21T13:18:41;33.80;20.40
43987;DHT22;29650;47.378;8.300;2023-08-21T13:21:08;34.00;20.50
43987;DHT22;29650;47.378;8.300;2023-08-21T13:23:35;34.50;20.70
43987;DHT22;29650;47.378;8.300;2023-08-21T13:26:02;34.30;19.70
43987;DHT22;29650;47.378;8.300;2023-08-21T13:28:30;34.30;20.30
43987;DHT22;29650;47.378;8.300;2023-08-21T13:30:58;34.10;20.10
43987;DHT22;29650;47.378;8.300;2023-08-21T13:33:25;34.20;19.90
43987;DHT22;29650;47.378;8.300;2023-08-21T13:35:52;34.10;20.30
43987;DHT22;29650;47.378;8.300;2023-08-21T13:38:19;34.30;20.70
43987;DHT22;29650;47.378;8.300;2023-08-21T13:40:46;34.50;20.00
43987;DHT22;29650;47.378;8.300;2023-08-21T13:43:12;34.60;20.10
43987;DHT22;29650;47.378;8.300;2023-08-21T13:45:41;34.70;19.40
43987;DHT22;29650;47.378;8.300;2023-08-21T13:48:08;34.40;19.80
43987;DHT22;29650;47.378;8.300;2023-08-21T13:50:35;33.50;19.70
43987;DHT22;29650;47.378;8.300;2023-08-21T13:53:02;34.20;20.90
43987;DHT22;29650;47.378;8.300;2023-08-21T13:55:29;34.50;20.10
43987;DHT22;29650;47.378;8.300;2023-08-21T13:57:56;34.70;19.50
43987;DHT22;29650;47.378;8.300;2023-08-21T14:00:23;34.40;18.30
43987;DHT22;29650;47.378;8.300;2023-08-21T14:02:51;34.80;17.90
43987;DHT22;29650;47.378;8.300;2023-08-21T14:05:18;34.90;18.60
43987;DHT22;29650;47.378;8.300;2023-08-21T14:07:45;34.90;17.90
43987;DHT22;29650;47.378;8.300;2023-08-21T14:10:12;34.60;18.20
43987;DHT22;29650;47.378;8.300;2023-08-21T14:12:40;34.50;18.10
43987;DHT22;29650;47.378;8.300;2023-08-21T14:15:07;34.40;17.50
43987;DHT22;29650;47.378;8.300;2023-08-21T14:17:34;34.30;17.80
43987;DHT22;29650;47.378;8.300;2023-08-21T14:20:04;34.70;17.80
43987;DHT22;29650;47.378;8.300;2023-08-21T14:22:32;34.70;16.50
43987;DHT22;29650;47.378;8.300;2023-08-21T14:24:59;34.90;16.80
43987;DHT22;29650;47.378;8.300;2023-08-21T14:27:26;35.00;15.80
43987;DHT22;29650;47.378;8.300;2023-08-21T14:29:53;35.10;15.90
43987;DHT22;29650;47.378;8.300;2023-08-21T14:32:20;34.80;15.70
43987;DHT22;29650;47.378;8.300;2023-08-21T14:34:47;35.20;16.50
43987;DHT22;29650;47.378;8.300;2023-08-21T14:37:16;35.30;16.20
43987;DHT22;29650;47.378;8.300;2023-08-21T14:39:43;35.50;16.70
43987;DHT22;29650;47.378;8.300;2023-08-21T14:42:10;35.60;16.30
43987;DHT22;29650;47.378;8.300;2023-08-21T14:44:37;35.20;15.70
43987;DHT22;29650;47.378;8.300;2023-08-21T14:47:04;35.30;16.80
43987;DHT22;29650;47.378;8.300;2023-08-21T14:49:31;35.20;18.80
43987;DHT22;29650;47.378;8.300;2023-08-21T14:51:58;35.10;18.80
43987;DHT22;29650;47.378;8.300;2023-08-21T14:54:27;35.10;18.00
43987;DHT22;29650;47.378;8.300;2023-08-21T14:56:53;35.10;18.60
43987;DHT22;29650;47.378;8.300;2023-08-21T14:59:20;35.00;18.30
43987;DHT22;29650;47.378;8.300;2023-08-21T15:01:47;35.30;19.20
43987;DHT22;29650;47.378;8.300;2023-08-21T15:04:14;35.50;18.90
43987;DHT22;29650;47.378;8.300;2023-08-21T15:06:41;35.60;17.90
43987;DHT22;29650;47.378;8.300;2023-08-21T15:09:08;35.20;18.70
43987;DHT22;29650;47.378;8.300;2023-08-21T15:11:36;34.90;19.70
43987;DHT22;29650;47.378;8.300;2023-08-21T15:14:08;35.00;19.90
43987;DHT22;29650;47.378;8.300;2023-08-21T15:16:35;33.80;19.70
43987;DHT22;29650;47.378;8.300;2023-08-21T15:19:02;35.60;19.70
43987;DHT22;29650;47.378;8.300;2023-08-21T15:21:29;35.50;19.70
43987;DHT22;29650;47.378;8.300;2023-08-21T15:23:56;35.10;20.20
43987;DHT22;29650;47.378;8.300;2023-08-21T15:26:23;35.30;19.60
43987;DHT22;29650;47.378;8.300;2023-08-21T15:28:51;35.20;19.60
43987;DHT22;29650;47.378;8.300;2023-08-21T15:31:18;35.20;19.70
43987;DHT22;29650;47.378;8.300;2023-08-21T15:33:45;35.30;19.70